logo dgac
Jueves 24 de Enero del 2019
Buscar por aerodromo o helipuerto
Ingrese nombre de aeródromo, localidad o designador OACI:

Aeródromo: Santo Domingo (PUB) (SCSN)

Ubicación: Santo Domingo, V Región, Chile (33º 39' 24'' S, 71º 36' 57'' W) Ver ubicación en el mapa

Pistas

Orientación Dimensión Pendiente Superficie Resistencia APCH THR RWY PAPI
05/23 800 x 18 ASPH 5.700 Kg No No No
Horas de operación HJ
Elevación 75 m / 246 ft
Otra Información Adm : DGAC
Uso : PUB
TEL MOVIL 984091772
TEL (56-2) 24363322 / (56-2) 24363840
Ubicado a 1,5 km SE del balneario Rocas de Santo Domingo

Otra información ver AIP-Chile Volumen I AD 3.9-18.9-S y VAC
CCCM/FCCV Descargar
andera de Chile
Mapa de Santo Domingo (PUB) (SCSN)

Último METAR

METAR SCSN 240500Z AUTO 35003KT 290V030 9999 OVC007 14/13 Q1010

Último TAF

TAF SCSN 231603Z 2318/2406 28012KT CAVOK TX21/2319Z TN15/2406Z TEMPO 2318/2322 26015KT 5000 BR SCT012

Últimas fotos cámaras

Imagen aerodromo Santo Domingo (PUB) (SCSN) N-Este tomada el 24-01-2019 02:09:26 Imagen aerodromo Santo Domingo (PUB) (SCSN) S-Oeste tomada el 24-01-2019 02:10:31

Último NOTAM

B1947/18 NOTAMN Q)SCEZ/QIGAS/I/BO/A/000/999/3339S07137W005 A)SCSN B)1812311504 C)1901312359 E)ILS GP 333.8 MHZ RWY 23 U/S

LLegadas a Santo Domingo (PUB) (SCSN)

En vuelo

Vuelo Procedencia Hora Despegue Local Hora Arribo Local

Salidas de Santo Domingo (PUB) (SCSN)

En vuelo

Vuelo Hacia Hora Despegue Local Hora Arribo Local